sensor_id;sensor_type;location;lat;lon;timestamp;P1;durP1;ratioP1;P2;durP2;ratioP2
64738;SDS011;51175;51.186;0.276;2023-09-07T00:00:16;76.47;;;55.55;;
64738;SDS011;51175;51.186;0.276;2023-09-07T00:00:46;77.97;;;56.90;;
64738;SDS011;51175;51.186;0.276;2023-09-07T00:01:17;72.82;;;53.45;;
64738;SDS011;51175;51.186;0.276;2023-09-07T00:01:47;74.20;;;54.47;;
64738;SDS011;51175;51.186;0.276;2023-09-07T00:02:17;73.43;;;54.45;;
64738;SDS011;51175;51.186;0.276;2023-09-07T00:02:48;78.43;;;57.05;;
64738;SDS011;51175;51.186;0.276;2023-09-07T00:03:18;79.78;;;55.92;;
64738;SDS011;51175;51.186;0.276;2023-09-07T00:03:48;76.15;;;55.70;;
64738;SDS011;51175;51.186;0.276;2023-09-07T00:04:19;74.47;;;54.17;;
64738;SDS011;51175;51.186;0.276;2023-09-07T00:04:51;75.30;;;55.53;;
64738;SDS011;51175;51.186;0.276;2023-09-07T00:05:21;72.47;;;54.03;;
64738;SDS011;51175;51.186;0.276;2023-09-07T00:05:51;73.03;;;53.63;;
64738;SDS011;51175;51.186;0.276;2023-09-07T00:06:22;75.03;;;53.28;;
64738;SDS011;51175;51.186;0.276;2023-09-07T00:06:52;71.03;;;52.08;;
64738;SDS011;51175;51.186;0.276;2023-09-07T00:07:22;72.07;;;53.55;;
64738;SDS011;51175;51.186;0.276;2023-09-07T00:07:53;75.13;;;55.28;;
64738;SDS011;51175;51.186;0.276;2023-09-07T00:08:23;71.25;;;51.65;;
64738;SDS011;51175;51.186;0.276;2023-09-07T00:08:55;75.50;;;54.17;;
64738;SDS011;51175;51.186;0.276;2023-09-07T00:09:26;67.85;;;51.70;;
64738;SDS011;51175;51.186;0.276;2023-09-07T00:09:57;72.97;;;54.38;;
64738;SDS011;51175;51.186;0.276;2023-09-07T00:10:27;72.70;;;53.35;;
64738;SDS011;51175;51.186;0.276;2023-09-07T00:11:04;68.32;;;51.00;;
64738;SDS011;51175;51.186;0.276;2023-09-07T00:11:35;74.07;;;53.72;;
64738;SDS011;51175;51.186;0.276;2023-09-07T00:12:06;69.43;;;52.20;;
64738;SDS011;51175;51.186;0.276;2023-09-07T00:12:36;67.57;;;50.25;;
64738;SDS011;51175;51.186;0.276;2023-09-07T00:13:09;69.05;;;52.83;;
64738;SDS011;51175;51.186;0.276;2023-09-07T00:13:39;70.85;;;52.28;;
64738;SDS011;51175;51.186;0.276;2023-09-07T00:14:09;68.07;;;50.78;;
64738;SDS011;51175;51.186;0.276;2023-09-07T00:14:40;71.43;;;52.25;;
64738;SDS011;51175;51.186;0.276;2023-09-07T00:15:10;68.65;;;51.63;;
64738;SDS011;51175;51.186;0.276;2023-09-07T00:15:41;73.22;;;51.85;;
64738;SDS011;51175;51.186;0.276;2023-09-07T00:16:11;70.00;;;51.03;;
64738;SDS011;51175;51.186;0.276;2023-09-07T00:16:41;66.63;;;48.72;;
64738;SDS011;51175;51.186;0.276;2023-09-07T00:17:12;66.95;;;51.25;;
64738;SDS011;51175;51.186;0.276;2023-09-07T00:17:42;65.32;;;51.05;;
64738;SDS011;51175;51.186;0.276;2023-09-07T00:18:12;69.95;;;51.20;;
64738;SDS011;51175;51.186;0.276;2023-09-07T00:18:43;67.38;;;50.20;;
64738;SDS011;51175;51.186;0.276;2023-09-07T00:19:13;68.22;;;48.58;;
64738;SDS011;51175;51.186;0.276;2023-09-07T00:19:43;66.40;;;48.30;;
64738;SDS011;51175;51.186;0.276;2023-09-07T00:20:16;67.88;;;49.70;;
64738;SDS011;51175;51.186;0.276;2023-09-07T00:20:49;67.30;;;47.92;;
64738;SDS011;51175;51.186;0.276;2023-09-07T00:21:20;63.92;;;48.25;;
64738;SDS011;51175;51.186;0.276;2023-09-07T00:21:50;64.75;;;47.78;;
64738;SDS011;51175;51.186;0.276;2023-09-07T00:22:21;69.00;;;52.13;;
64738;SDS011;51175;51.186;0.276;2023-09-07T00:22:52;61.15;;;47.30;;
64738;SDS011;51175;51.186;0.276;2023-09-07T00:23:22;68.63;;;49.30;;
64738;SDS011;51175;51.186;0.276;2023-09-07T00:23:53;62.42;;;47.10;;
64738;SDS011;51175;51.186;0.276;2023-09-07T00:24:23;62.35;;;46.72;;
64738;SDS011;51175;51.186;0.276;2023-09-07T00:24:53;63.88;;;46.42;;
64738;SDS011;51175;51.186;0.276;2023-09-07T00:25:24;65.70;;;47.05;;
64738;SDS011;51175;51.186;0.276;2023-09-07T00:25:54;60.58;;;45.28;;
64738;SDS011;51175;51.186;0.276;2023-09-07T00:26:24;60.88;;;46.30;;
64738;SDS011;51175;51.186;0.276;2023-09-07T00:26:55;60.45;;;46.00;;
64738;SDS011;51175;51.186;0.276;2023-09-07T00:27:25;62.17;;;46.15;;
64738;SDS011;51175;51.186;0.276;2023-09-07T00:27:55;59.75;;;45.03;;
64738;SDS011;51175;51.186;0.276;2023-09-07T00:28:26;61.83;;;45.28;;
64738;SDS011;51175;51.186;0.276;2023-09-07T00:28:56;63.53;;;46.22;;
64738;SDS011;51175;51.186;0.276;2023-09-07T00:29:26;63.35;;;46.33;;
64738;SDS011;51175;51.186;0.276;2023-09-07T00:29:57;61.63;;;46.03;;
64738;SDS011;51175;51.186;0.276;2023-09-07T00:30:27;58.15;;;43.15;;
64738;SDS011;51175;51.186;0.276;2023-09-07T00:30:57;60.33;;;43.88;;
64738;SDS011;51175;51.186;0.276;2023-09-07T00:31:28;56.15;;;42.58;;
64738;SDS011;51175;51.186;0.276;2023-09-07T00:31:58;64.03;;;44.25;;
64738;SDS011;51175;51.186;0.276;2023-09-07T00:32:28;56.90;;;42.17;;
64738;SDS011;51175;51.186;0.276;2023-09-07T00:32:59;57.88;;;43.40;;
64738;SDS011;51175;51.186;0.276;2023-09-07T00:33:29;59.53;;;43.90;;
64738;SDS011;51175;51.186;0.276;2023-09-07T00:33:59;57.05;;;41.22;;
64738;SDS011;51175;51.186;0.276;2023-09-07T00:34:30;57.45;;;41.60;;
64738;SDS011;51175;51.186;0.276;2023-09-07T00:35:00;57.90;;;43.42;;
64738;SDS011;51175;51.186;0.276;2023-09-07T00:35:31;57.90;;;41.70;;
64738;SDS011;51175;51.186;0.276;2023-09-07T00:36:01;54.63;;;41.75;;
64738;SDS011;51175;51.186;0.276;2023-09-07T00:36:33;54.22;;;41.97;;
64738;SDS011;51175;51.186;0.276;2023-09-07T00:37:03;53.50;;;41.58;;
64738;SDS011;51175;51.186;0.276;2023-09-07T00:37:33;55.08;;;41.30;;
64738;SDS011;51175;51.186;0.276;2023-09-07T00:38:04;61.55;;;42.10;;
64738;SDS011;51175;51.186;0.276;2023-09-07T00:38:34;55.40;;;41.30;;
64738;SDS011;51175;51.186;0.276;2023-09-07T00:39:05;52.65;;;40.17;;
64738;SDS011;51175;51.186;0.276;2023-09-07T00:39:35;52.38;;;40.65;;
64738;SDS011;51175;51.186;0.276;2023-09-07T00:40:06;54.80;;;40.17;;
64738;SDS011;51175;51.186;0.276;2023-09-07T00:40:42;56.92;;;41.67;;
64738;SDS011;51175;51.186;0.276;2023-09-07T00:41:13;58.28;;;42.33;;
64738;SDS011;51175;51.186;0.276;2023-09-07T00:41:43;51.45;;;39.05;;
64738;SDS011;51175;51.186;0.276;2023-09-07T00:42:14;53.70;;;39.88;;
64738;SDS011;51175;51.186;0.276;2023-09-07T00:42:44;54.30;;;41.45;;
64738;SDS011;51175;51.186;0.276;2023-09-07T00:43:14;54.25;;;40.10;;
64738;SDS011;51175;51.186;0.276;2023-09-07T00:43:45;52.53;;;38.97;;
64738;SDS011;51175;51.186;0.276;2023-09-07T00:44:15;50.50;;;38.80;;
64738;SDS011;51175;51.186;0.276;2023-09-07T00:44:46;50.83;;;39.63;;
64738;SDS011;51175;51.186;0.276;2023-09-07T00:45:18;53.08;;;39.33;;
64738;SDS011;51175;51.186;0.276;2023-09-07T00:45:48;52.10;;;39.20;;
64738;SDS011;51175;51.186;0.276;2023-09-07T00:46:19;47.50;;;37.33;;
64738;SDS011;51175;51.186;0.276;2023-09-07T00:46:51;50.58;;;38.03;;
64738;SDS011;51175;51.186;0.276;2023-09-07T00:47:22;52.95;;;40.13;;
64738;SDS011;51175;51.186;0.276;2023-09-07T00:47:52;53.55;;;40.08;;
64738;SDS011;51175;51.186;0.276;2023-09-07T00:48:23;49.10;;;37.45;;
64738;SDS011;51175;51.186;0.276;2023-09-07T00:48:54;50.70;;;38.17;;
64738;SDS011;51175;51.186;0.276;2023-09-07T00:49:24;53.88;;;39.25;;
64738;SDS011;51175;51.186;0.276;2023-09-07T00:49:55;48.30;;;38.25;;
64738;SDS011;51175;51.186;0.276;2023-09-07T00:50:26;46.97;;;37.05;;
64738;SDS011;51175;51.186;0.276;2023-09-07T00:50:56;50.20;;;36.42;;
64738;SDS011;51175;51.186;0.276;2023-09-07T00:51:27;49.65;;;37.72;;
64738;SDS011;51175;51.186;0.276;2023-09-07T00:51:57;50.95;;;38.20;;
64738;SDS011;51175;51.186;0.276;2023-09-07T00:52:28;46.38;;;36.20;;
64738;SDS011;51175;51.186;0.276;2023-09-07T00:52:59;51.50;;;38.78;;
64738;SDS011;51175;51.186;0.276;2023-09-07T00:53:30;51.22;;;36.75;;
64738;SDS011;51175;51.186;0.276;2023-09-07T00:54:00;52.50;;;36.70;;
64738;SDS011;51175;51.186;0.276;2023-09-07T00:54:31;47.25;;;35.85;;
64738;SDS011;51175;51.186;0.276;2023-09-07T00:55:01;51.45;;;37.42;;
64738;SDS011;51175;51.186;0.276;2023-09-07T00:55:34;48.42;;;35.17;;
64738;SDS011;51175;51.186;0.276;2023-09-07T00:56:06;48.97;;;37.33;;
64738;SDS011;51175;51.186;0.276;2023-09-07T00:56:37;46.25;;;35.95;;
64738;SDS011;51175;51.186;0.276;2023-09-07T00:57:07;44.97;;;34.75;;
64738;SDS011;51175;51.186;0.276;2023-09-07T00:57:38;45.70;;;35.75;;
64738;SDS011;51175;51.186;0.276;2023-09-07T00:58:09;47.22;;;35.80;;
64738;SDS011;51175;51.186;0.276;2023-09-07T00:58:41;47.63;;;35.88;;
64738;SDS011;51175;51.186;0.276;2023-09-07T00:59:12;47.50;;;34.83;;
64738;SDS011;51175;51.186;0.276;2023-09-07T00:59:43;46.58;;;34.33;;
64738;SDS011;51175;51.186;0.276;2023-09-07T01:00:13;43.47;;;33.47;;
64738;SDS011;51175;51.186;0.276;2023-09-07T01:00:44;45.83;;;33.40;;
64738;SDS011;51175;51.186;0.276;2023-09-07T01:01:14;44.45;;;33.28;;
64738;SDS011;51175;51.186;0.276;2023-09-07T01:01:45;42.50;;;32.65;;
64738;SDS011;51175;51.186;0.276;2023-09-07T01:02:15;44.38;;;33.38;;
64738;SDS011;51175;51.186;0.276;2023-09-07T01:02:45;46.72;;;34.58;;
64738;SDS011;51175;51.186;0.276;2023-09-07T01:03:16;44.80;;;33.72;;
64738;SDS011;51175;51.186;0.276;2023-09-07T01:03:46;43.25;;;33.50;;
64738;SDS011;51175;51.186;0.276;2023-09-07T01:04:16;45.33;;;32.55;;
64738;SDS011;51175;51.186;0.276;2023-09-07T01:04:47;42.17;;;32.30;;
64738;SDS011;51175;51.186;0.276;2023-09-07T01:05:17;43.88;;;33.80;;
64738;SDS011;51175;51.186;0.276;2023-09-07T01:05:55;42.20;;;32.03;;
64738;SDS011;51175;51.186;0.276;2023-09-07T01:06:33;44.97;;;34.22;;
64738;SDS011;51175;51.186;0.276;2023-09-07T01:07:09;42.35;;;31.98;;
64738;SDS011;51175;51.186;0.276;2023-09-07T01:08:24;45.75;;;31.80;;
64738;SDS011;51175;51.186;0.276;2023-09-07T01:09:01;44.65;;;32.90;;
64738;SDS011;51175;51.186;0.276;2023-09-07T01:09:40;41.90;;;31.83;;
64738;SDS011;51175;51.186;0.276;2023-09-07T01:10:10;41.67;;;30.58;;
64738;SDS011;51175;51.186;0.276;2023-09-07T01:10:41;44.15;;;32.25;;
64738;SDS011;51175;51.186;0.276;2023-09-07T01:11:18;42.28;;;31.90;;
64738;SDS011;51175;51.186;0.276;2023-09-07T01:11:56;42.17;;;31.42;;
64738;SDS011;51175;51.186;0.276;2023-09-07T01:12:26;43.78;;;32.78;;
64738;SDS011;51175;51.186;0.276;2023-09-07T01:12:57;40.63;;;30.70;;
64738;SDS011;51175;51.186;0.276;2023-09-07T01:13:27;41.97;;;32.13;;
64738;SDS011;51175;51.186;0.276;2023-09-07T01:13:58;40.25;;;31.67;;
64738;SDS011;51175;51.186;0.276;2023-09-07T01:14:28;39.67;;;30.30;;
64738;SDS011;51175;51.186;0.276;2023-09-07T01:14:58;43.20;;;32.40;;
64738;SDS011;51175;51.186;0.276;2023-09-07T01:15:29;40.88;;;30.42;;
64738;SDS011;51175;51.186;0.276;2023-09-07T01:15:59;41.03;;;31.95;;
64738;SDS011;51175;51.186;0.276;2023-09-07T01:16:30;37.13;;;29.17;;
64738;SDS011;51175;51.186;0.276;2023-09-07T01:17:04;38.60;;;30.58;;
64738;SDS011;51175;51.186;0.276;2023-09-07T01:17:35;39.08;;;30.75;;
64738;SDS011;51175;51.186;0.276;2023-09-07T01:18:06;41.17;;;31.40;;
64738;SDS011;51175;51.186;0.276;2023-09-07T01:18:38;40.55;;;30.90;;
64738;SDS011;51175;51.186;0.276;2023-09-07T01:19:09;40.08;;;30.48;;
64738;SDS011;51175;51.186;0.276;2023-09-07T01:19:41;35.80;;;29.00;;
64738;SDS011;51175;51.186;0.276;2023-09-07T01:20:12;39.05;;;30.25;;
64738;SDS011;51175;51.186;0.276;2023-09-07T01:20:44;38.83;;;30.00;;
64738;SDS011;51175;51.186;0.276;2023-09-07T01:21:15;39.75;;;30.58;;
64738;SDS011;51175;51.186;0.276;2023-09-07T01:21:47;38.85;;;30.42;;
64738;SDS011;51175;51.186;0.276;2023-09-07T01:22:19;33.67;;;27.23;;
64738;SDS011;51175;51.186;0.276;2023-09-07T01:22:52;37.55;;;29.33;;
64738;SDS011;51175;51.186;0.276;2023-09-07T01:23:23;39.03;;;31.15;;
64738;SDS011;51175;51.186;0.276;2023-09-07T01:23:54;38.03;;;30.55;;
64738;SDS011;51175;51.186;0.276;2023-09-07T01:24:26;38.70;;;29.80;;
64738;SDS011;51175;51.186;0.276;2023-09-07T01:25:00;40.20;;;29.88;;
64738;SDS011;51175;51.186;0.276;2023-09-07T01:25:31;39.58;;;29.75;;
64738;SDS011;51175;51.186;0.276;2023-09-07T01:26:02;35.83;;;28.40;;
64738;SDS011;51175;51.186;0.276;2023-09-07T01:26:34;35.80;;;28.55;;
64738;SDS011;51175;51.186;0.276;2023-09-07T01:27:08;39.35;;;29.10;;
64738;SDS011;51175;51.186;0.276;2023-09-07T01:27:39;34.92;;;28.10;;
64738;SDS011;51175;51.186;0.276;2023-09-07T01:28:10;38.63;;;28.85;;
64738;SDS011;51175;51.186;0.276;2023-09-07T01:28:40;38.20;;;29.27;;
64738;SDS011;51175;51.186;0.276;2023-09-07T01:29:11;38.80;;;28.85;;
64738;SDS011;51175;51.186;0.276;2023-09-07T01:29:42;38.60;;;29.30;;
64738;SDS011;51175;51.186;0.276;2023-09-07T01:30:12;37.53;;;29.67;;
64738;SDS011;51175;51.186;0.276;2023-09-07T01:30:43;36.22;;;28.50;;
64738;SDS011;51175;51.186;0.276;2023-09-07T01:31:15;38.30;;;28.08;;
64738;SDS011;51175;51.186;0.276;2023-09-07T01:31:45;39.78;;;29.70;;
64738;SDS011;51175;51.186;0.276;2023-09-07T01:32:16;36.47;;;28.83;;
64738;SDS011;51175;51.186;0.276;2023-09-07T01:32:46;35.33;;;29.48;;
64738;SDS011;51175;51.186;0.276;2023-09-07T01:33:19;40.33;;;28.70;;
64738;SDS011;51175;51.186;0.276;2023-09-07T01:33:49;38.40;;;30.17;;
64738;SDS011;51175;51.186;0.276;2023-09-07T01:34:20;37.25;;;30.67;;
64738;SDS011;51175;51.186;0.276;2023-09-07T01:34:50;35.35;;;27.65;;
64738;SDS011;51175;51.186;0.276;2023-09-07T01:35:20;36.67;;;27.73;;
64738;SDS011;51175;51.186;0.276;2023-09-07T01:35:52;37.90;;;27.52;;
64738;SDS011;51175;51.186;0.276;2023-09-07T01:36:22;37.60;;;28.10;;
64738;SDS011;51175;51.186;0.276;2023-09-07T01:36:53;38.13;;;29.90;;
64738;SDS011;51175;51.186;0.276;2023-09-07T01:37:23;34.75;;;27.67;;
64738;SDS011;51175;51.186;0.276;2023-09-07T01:37:53;34.47;;;27.23;;
64738;SDS011;51175;51.186;0.276;2023-09-07T01:38:24;34.22;;;27.27;;
64738;SDS011;51175;51.186;0.276;2023-09-07T01:38:54;34.28;;;27.60;;
64738;SDS011;51175;51.186;0.276;2023-09-07T01:39:24;33.75;;;27.38;;
64738;SDS011;51175;51.186;0.276;2023-09-07T01:39:56;33.47;;;27.92;;
64738;SDS011;51175;51.186;0.276;2023-09-07T01:40:26;36.38;;;26.67;;
64738;SDS011;51175;51.186;0.276;2023-09-07T01:40:57;35.30;;;28.10;;
64738;SDS011;51175;51.186;0.276;2023-09-07T01:41:27;34.47;;;26.15;;
64738;SDS011;51175;51.186;0.276;2023-09-07T01:41:59;34.20;;;25.98;;
64738;SDS011;51175;51.186;0.276;2023-09-07T01:42:29;34.67;;;27.48;;
64738;SDS011;51175;51.186;0.276;2023-09-07T01:42:59;36.47;;;27.70;;
64738;SDS011;51175;51.186;0.276;2023-09-07T01:43:30;33.97;;;26.25;;
64738;SDS011;51175;51.186;0.276;2023-09-07T01:44:00;36.05;;;28.00;;
64738;SDS011;51175;51.186;0.276;2023-09-07T01:44:30;36.40;;;26.63;;
64738;SDS011;51175;51.186;0.276;2023-09-07T01:45:01;34.63;;;27.23;;
64738;SDS011;51175;51.186;0.276;2023-09-07T01:45:31;32.72;;;25.90;;
64738;SDS011;51175;51.186;0.276;2023-09-07T01:46:01;33.50;;;26.23;;
64738;SDS011;51175;51.186;0.276;2023-09-07T01:46:32;36.15;;;28.02;;
64738;SDS011;51175;51.186;0.276;2023-09-07T01:47:02;36.28;;;26.35;;
64738;SDS011;51175;51.186;0.276;2023-09-07T01:47:32;35.38;;;26.92;;
64738;SDS011;51175;51.186;0.276;2023-09-07T01:48:03;35.75;;;26.67;;
64738;SDS011;51175;51.186;0.276;2023-09-07T01:48:35;34.92;;;26.77;;
64738;SDS011;51175;51.186;0.276;2023-09-07T01:49:06;34.40;;;27.15;;
64738;SDS011;51175;51.186;0.276;2023-09-07T01:49:36;32.80;;;25.95;;
64738;SDS011;51175;51.186;0.276;2023-09-07T01:50:07;32.67;;;26.63;;
64738;SDS011;51175;51.186;0.276;2023-09-07T01:50:37;36.47;;;27.58;;
64738;SDS011;51175;51.186;0.276;2023-09-07T01:51:08;33.42;;;25.75;;
64738;SDS011;51175;51.186;0.276;2023-09-07T01:51:38;34.75;;;27.75;;
64738;SDS011;51175;51.186;0.276;2023-09-07T01:52:08;34.53;;;25.67;;
64738;SDS011;51175;51.186;0.276;2023-09-07T01:52:39;32.90;;;25.42;;
64738;SDS011;51175;51.186;0.276;2023-09-07T01:53:09;34.20;;;25.13;;
64738;SDS011;51175;51.186;0.276;2023-09-07T01:53:40;35.03;;;25.90;;
64738;SDS011;51175;51.186;0.276;2023-09-07T01:54:10;33.45;;;25.45;;
64738;SDS011;51175;51.186;0.276;2023-09-07T01:54:40;33.35;;;26.65;;
64738;SDS011;51175;51.186;0.276;2023-09-07T01:55:11;32.78;;;26.20;;
64738;SDS011;51175;51.186;0.276;2023-09-07T01:55:41;33.58;;;25.77;;
64738;SDS011;51175;51.186;0.276;2023-09-07T01:56:11;33.47;;;25.98;;
64738;SDS011;51175;51.186;0.276;2023-09-07T01:56:42;33.00;;;25.35;;
64738;SDS011;51175;51.186;0.276;2023-09-07T01:57:12;32.30;;;25.42;;
64738;SDS011;51175;51.186;0.276;2023-09-07T01:57:43;33.40;;;26.15;;
64738;SDS011;51175;51.186;0.276;2023-09-07T01:58:14;33.17;;;24.80;;
64738;SDS011;51175;51.186;0.276;2023-09-07T01:58:44;34.03;;;26.35;;
64738;SDS011;51175;51.186;0.276;2023-09-07T01:59:15;32.97;;;25.33;;
64738;SDS011;51175;51.186;0.276;2023-09-07T01:59:45;34.95;;;25.67;;
64738;SDS011;51175;51.186;0.276;2023-09-07T02:00:15;29.80;;;24.30;;
64738;SDS011;51175;51.186;0.276;2023-09-07T02:00:45;32.58;;;25.15;;
64738;SDS011;51175;51.186;0.276;2023-09-07T02:01:26;30.48;;;24.80;;
64738;SDS011;51175;51.186;0.276;2023-09-07T02:01:59;33.40;;;25.35;;
64738;SDS011;51175;51.186;0.276;2023-09-07T02:02:29;32.42;;;24.90;;
64738;SDS011;51175;51.186;0.276;2023-09-07T02:03:00;31.58;;;24.23;;
64738;SDS011;51175;51.186;0.276;2023-09-07T02:03:30;30.35;;;24.33;;
64738;SDS011;51175;51.186;0.276;2023-09-07T02:04:00;31.10;;;23.48;;
64738;SDS011;51175;51.186;0.276;2023-09-07T02:04:31;30.88;;;24.55;;
64738;SDS011;51175;51.186;0.276;2023-09-07T02:05:01;33.90;;;24.98;;
64738;SDS011;51175;51.186;0.276;2023-09-07T02:05:32;33.28;;;24.85;;
64738;SDS011;51175;51.186;0.276;2023-09-07T02:06:02;30.42;;;24.10;;
64738;SDS011;51175;51.186;0.276;2023-09-07T02:06:32;29.38;;;24.15;;
64738;SDS011;51175;51.186;0.276;2023-09-07T02:07:03;31.45;;;25.02;;
64738;SDS011;51175;51.186;0.276;2023-09-07T02:07:34;30.48;;;24.33;;
64738;SDS011;51175;51.186;0.276;2023-09-07T02:08:04;29.48;;;23.95;;
64738;SDS011;51175;51.186;0.276;2023-09-07T02:08:35;29.23;;;24.48;;
64738;SDS011;51175;51.186;0.276;2023-09-07T02:09:05;32.13;;;24.50;;
64738;SDS011;51175;51.186;0.276;2023-09-07T02:09:35;29.40;;;23.45;;
64738;SDS011;51175;51.186;0.276;2023-09-07T02:10:06;27.48;;;23.02;;
64738;SDS011;51175;51.186;0.276;2023-09-07T02:10:36;32.08;;;25.05;;
64738;SDS011;51175;51.186;0.276;2023-09-07T02:11:07;32.83;;;24.65;;
64738;SDS011;51175;51.186;0.276;2023-09-07T02:11:37;32.72;;;24.77;;
64738;SDS011;51175;51.186;0.276;2023-09-07T02:12:09;29.27;;;23.17;;
64738;SDS011;51175;51.186;0.276;2023-09-07T02:12:41;32.85;;;24.52;;
64738;SDS011;51175;51.186;0.276;2023-09-07T02:13:11;30.50;;;24.23;;
64738;SDS011;51175;51.186;0.276;2023-09-07T02:13:42;28.17;;;22.83;;
64738;SDS011;51175;51.186;0.276;2023-09-07T02:14:13;28.10;;;23.00;;
64738;SDS011;51175;51.186;0.276;2023-09-07T02:14:43;30.45;;;22.77;;
64738;SDS011;51175;51.186;0.276;2023-09-07T02:15:14;28.75;;;23.13;;
64738;SDS011;51175;51.186;0.276;2023-09-07T02:15:44;30.55;;;23.45;;
64738;SDS011;51175;51.186;0.276;2023-09-07T02:16:15;27.58;;;23.02;;
64738;SDS011;51175;51.186;0.276;2023-09-07T02:16:45;27.70;;;21.63;;
64738;SDS011;51175;51.186;0.276;2023-09-07T02:17:16;30.80;;;22.42;;
64738;SDS011;51175;51.186;0.276;2023-09-07T02:17:47;29.13;;;22.83;;
64738;SDS011;51175;51.186;0.276;2023-09-07T02:18:18;31.15;;;23.90;;
64738;SDS011;51175;51.186;0.276;2023-09-07T02:18:49;32.08;;;24.05;;
64738;SDS011;51175;51.186;0.276;2023-09-07T02:19:20;29.80;;;22.48;;
64738;SDS011;51175;51.186;0.276;2023-09-07T02:19:52;29.75;;;23.98;;
64738;SDS011;51175;51.186;0.276;2023-09-07T02:20:23;28.90;;;23.15;;
64738;SDS011;51175;51.186;0.276;2023-09-07T02:20:53;28.75;;;22.60;;
64738;SDS011;51175;51.186;0.276;2023-09-07T02:21:23;30.80;;;22.70;;
64738;SDS011;51175;51.186;0.276;2023-09-07T02:21:54;29.35;;;22.33;;
64738;SDS011;51175;51.186;0.276;2023-09-07T02:22:24;29.38;;;22.30;;
64738;SDS011;51175;51.186;0.276;2023-09-07T02:22:54;27.33;;;21.42;;
64738;SDS011;51175;51.186;0.276;2023-09-07T02:23:25;28.98;;;22.52;;
64738;SDS011;51175;51.186;0.276;2023-09-07T02:23:55;30.27;;;23.75;;
64738;SDS011;51175;51.186;0.276;2023-09-07T02:24:25;28.17;;;22.40;;
64738;SDS011;51175;51.186;0.276;2023-09-07T02:24:56;29.92;;;22.02;;
64738;SDS011;51175;51.186;0.276;2023-09-07T02:25:26;28.30;;;23.15;;
64738;SDS011;51175;51.186;0.276;2023-09-07T02:25:58;29.30;;;23.20;;
64738;SDS011;51175;51.186;0.276;2023-09-07T02:26:29;28.58;;;21.83;;
64738;SDS011;51175;51.186;0.276;2023-09-07T02:26:59;31.17;;;23.75;;
64738;SDS011;51175;51.186;0.276;2023-09-07T02:27:29;25.75;;;20.85;;
64738;SDS011;51175;51.186;0.276;2023-09-07T02:28:00;27.20;;;21.40;;
64738;SDS011;51175;51.186;0.276;2023-09-07T02:28:30;28.52;;;22.88;;
64738;SDS011;51175;51.186;0.276;2023-09-07T02:29:01;26.10;;;21.38;;
64738;SDS011;51175;51.186;0.276;2023-09-07T02:29:35;27.95;;;22.75;;
64738;SDS011;51175;51.186;0.276;2023-09-07T02:30:05;30.08;;;22.85;;
64738;SDS011;51175;51.186;0.276;2023-09-07T02:30:36;28.33;;;22.42;;
64738;SDS011;51175;51.186;0.276;2023-09-07T02:31:07;27.02;;;20.70;;
64738;SDS011;51175;51.186;0.276;2023-09-07T02:31:39;30.33;;;22.38;;
64738;SDS011;51175;51.186;0.276;2023-09-07T02:32:10;26.48;;;20.80;;
64738;SDS011;51175;51.186;0.276;2023-09-07T02:32:41;27.63;;;21.33;;
64738;SDS011;51175;51.186;0.276;2023-09-07T02:33:12;26.80;;;21.33;;
64738;SDS011;51175;51.186;0.276;2023-09-07T02:33:43;27.23;;;22.27;;
64738;SDS011;51175;51.186;0.276;2023-09-07T02:34:13;26.88;;;21.35;;
64738;SDS011;51175;51.186;0.276;2023-09-07T02:34:43;26.17;;;20.23;;
64738;SDS011;51175;51.186;0.276;2023-09-07T02:35:14;26.33;;;21.45;;
64738;SDS011;51175;51.186;0.276;2023-09-07T02:35:44;24.85;;;21.75;;
64738;SDS011;51175;51.186;0.276;2023-09-07T02:36:15;27.05;;;21.45;;
64738;SDS011;51175;51.186;0.276;2023-09-07T02:36:45;27.02;;;21.85;;
64738;SDS011;51175;51.186;0.276;2023-09-07T02:37:15;25.42;;;20.92;;
64738;SDS011;51175;51.186;0.276;2023-09-07T02:37:48;25.33;;;19.83;;
64738;SDS011;51175;51.186;0.276;2023-09-07T02:38:18;28.08;;;21.85;;
64738;SDS011;51175;51.186;0.276;2023-09-07T02:38:49;26.17;;;21.17;;
64738;SDS011;51175;51.186;0.276;2023-09-07T02:39:19;24.95;;;19.80;;
64738;SDS011;51175;51.186;0.276;2023-09-07T02:39:50;24.30;;;19.98;;
64738;SDS011;51175;51.186;0.276;2023-09-07T02:40:20;23.88;;;20.58;;
64738;SDS011;51175;51.186;0.276;2023-09-07T02:40:51;26.92;;;20.02;;
64738;SDS011;51175;51.186;0.276;2023-09-07T02:41:22;25.38;;;20.30;;
64738;SDS011;51175;51.186;0.276;2023-09-07T02:41:53;24.17;;;20.80;;
64738;SDS011;51175;51.186;0.276;2023-09-07T02:42:23;26.35;;;20.63;;
64738;SDS011;51175;51.186;0.276;2023-09-07T02:42:54;23.15;;;18.02;;
64738;SDS011;51175;51.186;0.276;2023-09-07T02:43:25;26.50;;;20.50;;
64738;SDS011;51175;51.186;0.276;2023-09-07T02:43:55;24.48;;;20.58;;
64738;SDS011;51175;51.186;0.276;2023-09-07T02:44:25;26.02;;;20.95;;
64738;SDS011;51175;51.186;0.276;2023-09-07T02:44:55;27.33;;;19.92;;
64738;SDS011;51175;51.186;0.276;2023-09-07T02:45:26;25.75;;;21.33;;
64738;SDS011;51175;51.186;0.276;2023-09-07T02:45:56;25.90;;;20.92;;
64738;SDS011;51175;51.186;0.276;2023-09-07T02:46:26;25.77;;;19.45;;
64738;SDS011;51175;51.186;0.276;2023-09-07T02:46:57;28.27;;;20.52;;
64738;SDS011;51175;51.186;0.276;2023-09-07T02:47:27;24.95;;;20.23;;
64738;SDS011;51175;51.186;0.276;2023-09-07T02:47:57;24.25;;;20.55;;
64738;SDS011;51175;51.186;0.276;2023-09-07T02:48:28;23.60;;;20.15;;
64738;SDS011;51175;51.186;0.276;2023-09-07T02:48:58;24.85;;;19.60;;
64738;SDS011;51175;51.186;0.276;2023-09-07T02:49:28;24.75;;;20.00;;
64738;SDS011;51175;51.186;0.276;2023-09-07T02:49:59;24.63;;;19.38;;
64738;SDS011;51175;51.186;0.276;2023-09-07T02:50:31;26.92;;;20.63;;
64738;SDS011;51175;51.186;0.276;2023-09-07T02:51:03;23.15;;;19.20;;
64738;SDS011;51175;51.186;0.276;2023-09-07T02:51:33;25.00;;;20.38;;
64738;SDS011;51175;51.186;0.276;2023-09-07T02:52:04;24.33;;;19.60;;
64738;SDS011;51175;51.186;0.276;2023-09-07T02:52:34;24.20;;;20.15;;
64738;SDS011;51175;51.186;0.276;2023-09-07T02:53:05;26.25;;;19.65;;
64738;SDS011;51175;51.186;0.276;2023-09-07T02:53:35;23.95;;;19.23;;
64738;SDS011;51175;51.186;0.276;2023-09-07T02:54:05;26.23;;;20.30;;
64738;SDS011;51175;51.186;0.276;2023-09-07T02:54:36;24.35;;;19.13;;
64738;SDS011;51175;51.186;0.276;2023-09-07T02:55:06;25.27;;;20.02;;
64738;SDS011;51175;51.186;0.276;2023-09-07T02:55:39;22.88;;;19.67;;
64738;SDS011;51175;51.186;0.276;2023-09-07T02:56:09;24.40;;;20.83;;
64738;SDS011;51175;51.186;0.276;2023-09-07T02:56:40;25.23;;;20.40;;
64738;SDS011;51175;51.186;0.276;2023-09-07T02:57:11;25.13;;;19.42;;
64738;SDS011;51175;51.186;0.276;2023-09-07T02:57:42;23.60;;;19.35;;
64738;SDS011;51175;51.186;0.276;2023-09-07T02:58:12;22.15;;;18.25;;
64738;SDS011;51175;51.186;0.276;2023-09-07T02:58:43;22.77;;;19.02;;
64738;SDS011;51175;51.186;0.276;2023-09-07T02:59:15;22.58;;;18.77;;
64738;SDS011;51175;51.186;0.276;2023-09-07T02:59:45;23.85;;;19.55;;
64738;SDS011;51175;51.186;0.276;2023-09-07T03:00:16;25.60;;;20.23;;
64738;SDS011;51175;51.186;0.276;2023-09-07T03:00:47;26.23;;;19.92;;
64738;SDS011;51175;51.186;0.276;2023-09-07T03:01:17;27.00;;;21.27;;